Main page
Satellite images 15-day forecastsClimateMarine weather Cyclones Lightning AirportsFAQ Newsletter About
Weather : Europe Africa North America South America Asia Australia-Oceania Others
Languages Contact

Liège, Belgium

Bierset

latitude: 50-39N, longitude: 005-27E, elevation: 186 m


METAR: EBLG 150350Z VRB02KT 3000 BR NSC 13/11 Q1017 TEMPO 2000 BR
short-TAF: out of date (40311 hours)
long-TAF: EBLG 141720Z 1418/1524 05005KT CAVOK BECMG 1501/1503 3500 BR PROB40 1503/1508 0300 BCFG BECMG 1508/1510 9999 NSW

Time: 06:01 (04:01 UTC)

Current weather observation

The report was made 11 minutes ago, at 03:50 UTC  
Wind 02 kt from variable directions
Temperature 13°C
Humidity 88%
Pressure 1017 hPa
Visibility 3000 m
mist

Change units

Forecast

The report was made 10 hours and 34 minutes ago, at 17:27 UTC  
Forecast valid from 14 at 18 UTC to 15 at 24 UTC
Wind 05 kt from the Northeast
Visibility 10 km or more
no clouds below 1500 m and no cumulonimbus
Becoming
from 15 at 01 UTC to 15 at 03 UTC
Visibility 3500 m
mist
Probability 40%
from 15 at 03 UTC to 15 at 08 UTC
Visibility 0300 m
patches of fog
Becoming
from 15 at 08 UTC to 15 at 10 UTC
Visibility 10 km or more
The information on this site is subject to a disclaimer
Weather : Europe Africa North America South America Asia Australia-Oceania Others
Satellite images 15-day forecastsClimateMarine weather Cyclones Lightning AirportsFAQ Languages Contact Newsletter About